Time;durP1;ratioP1;P1;durP2;ratioP2;P2;SDS_P1;SDS_P2;PMS_P1;PMS_P2;Temp;Humidity;BMP_temperature;BMP_pressure;BME280_temperature;BME280_humidity;BME280_pressure;Samples;Min_cycle;Max_cycle;Signal;HPM_P1;HPM_P2
2021/12/17 00:00:50;;;;;;;14.43;10.27;;;9.50;62.80;;;;;;5089245;28;20481;-55
2021/12/17 00:03:33;;;;;;;13.20;10.00;;;9.50;62.20;;;;;;5083268;28;20437;-56
2021/12/17 00:06:47;;;;;;;17.27;10.53;;;9.60;61.90;;;;;;5085705;28;20475;-55
2021/12/17 00:08:53;;;;;;;14.47;9.77;;;9.70;61.80;;;;;;5089059;28;20449;-55
2021/12/17 00:11:20;;;;;;;11.93;9.77;;;9.70;61.60;;;;;;5091504;28;20456;-54
2021/12/17 00:13:47;;;;;;;12.17;10.00;;;9.70;61.60;;;;;;5095030;28;20440;-54
2021/12/17 00:16:22;;;;;;;15.63;10.13;;;9.60;61.80;;;;;;5090817;28;20449;-56
2021/12/17 00:19:15;;;;;;;10.27;8.67;;;9.40;62.50;;;;;;5093742;28;20468;-54
2021/12/17 00:48:59;;;;;;;11.07;9.90;;;9.80;62.50;;;;;;5092968;28;20870;-54
2021/12/17 00:51:55;;;;;;;13.90;10.07;;;9.80;62.40;;;;;;5091931;28;21850;-54
2021/12/17 00:54:33;;;;;;;14.17;10.60;;;9.70;61.90;;;;;;5091795;28;20452;-54
2021/12/17 00:57:04;;;;;;;15.23;11.10;;;9.80;62.20;;;;;;5092175;28;20444;-54
2021/12/17 00:59:30;;;;;;;15.40;10.97;;;9.90;62.20;;;;;;5090202;28;20489;-54
2021/12/17 01:01:59;;;;;;;16.20;10.27;;;9.90;62.20;;;;;;5090879;28;20456;-54
2021/12/17 01:04:25;;;;;;;15.13;11.43;;;10.00;60.80;;;;;;5087518;28;20462;-54
2021/12/17 01:06:50;;;;;;;13.03;9.77;;;10.00;60.70;;;;;;5086610;28;20500;-52
2021/12/17 01:09:19;;;;;;;18.93;10.83;;;10.00;60.50;;;;;;5088573;28;20429;-53
2021/12/17 01:11:45;;;;;;;12.70;10.20;;;10.00;60.30;;;;;;5086231;28;20428;-54
2021/12/17 01:14:12;;;;;;;13.13;9.67;;;10.10;60.20;;;;;;5082428;28;21018;-55
2021/12/17 01:16:38;;;;;;;14.20;10.80;;;10.10;60.00;;;;;;5084378;28;20445;-53
2021/12/17 01:24:41;;;;;;;14.50;10.03;;;10.20;60.00;;;;;;5081496;28;20460;-54
2021/12/17 01:35:34;;;;;;;12.77;10.00;;;10.20;60.60;;;;;;5076538;28;20817;-54
2021/12/17 01:43:18;;;;;;;14.57;11.77;;;10.30;60.60;;;;;;5083966;28;20498;-55
2021/12/17 01:45:43;;;;;;;19.70;11.93;;;10.30;60.60;;;;;;5085863;28;20484;-51
2021/12/17 01:48:15;;;;;;;14.77;12.00;;;10.30;60.80;;;;;;5084079;28;20525;-53
2021/12/17 02:01:27;;;;;;;14.90;11.40;;;10.30;60.40;;;;;;5083324;28;20522;-53
2021/12/17 02:03:53;;;;;;;13.80;11.30;;;10.30;60.30;;;;;;5087524;28;20472;-54
2021/12/17 02:06:21;;;;;;;15.93;11.87;;;10.30;60.50;;;;;;5084021;28;20813;-53
2021/12/17 02:08:48;;;;;;;16.83;11.83;;;10.30;60.40;;;;;;5082680;28;21126;-55
2021/12/17 02:19:31;;;;;;;16.80;11.90;;;10.40;60.30;;;;;;5082187;28;20515;-55
2021/12/17 02:30:05;;;;;;;14.30;10.97;;;10.40;60.20;;;;;;5080769;28;20459;-55
2021/12/17 02:32:33;;;;;;;14.10;10.50;;;10.50;60.50;;;;;;5082707;28;20449;-55
2021/12/17 02:37:33;;;;;;;16.90;11.57;;;10.50;60.40;;;;;;5086681;28;20441;-54
2021/12/17 02:40:14;;;;;;;13.00;10.97;;;10.50;60.40;;;;;;5079129;28;20481;-54
2021/12/17 02:45:33;;;;;;;14.40;11.03;;;10.50;60.30;;;;;;5087484;28;20473;-54
2021/12/17 02:47:59;;;;;;;11.40;10.20;;;10.50;60.50;;;;;;5085423;28;20456;-54
2021/12/17 02:50:25;;;;;;;16.40;11.40;;;10.50;60.40;;;;;;5087191;28;21185;-54
2021/12/17 02:52:53;;;;;;;15.20;12.27;;;10.50;60.40;;;;;;5087660;28;20273;-54
2021/12/17 02:55:20;;;;;;;13.63;11.17;;;10.50;60.50;;;;;;5085409;28;20944;-54
2021/12/17 02:57:46;;;;;;;16.17;10.90;;;10.50;60.40;;;;;;5089702;28;22040;-54
2021/12/17 03:00:13;;;;;;;13.20;11.40;;;10.50;60.30;;;;;;5091104;28;20491;-55
2021/12/17 03:02:39;;;;;;;14.90;10.77;;;10.50;60.50;;;;;;5090091;28;20454;-54
2021/12/17 03:05:07;;;;;;;14.70;11.30;;;10.50;60.50;;;;;;5087804;28;20510;-53
2021/12/17 03:07:37;;;;;;;13.57;11.50;;;10.50;60.70;;;;;;5082755;28;20445;-55
2021/12/17 03:10:06;;;;;;;12.87;10.97;;;10.50;60.70;;;;;;5087490;28;20441;-54
2021/12/17 03:12:42;;;;;;;14.50;11.60;;;10.40;60.90;;;;;;5090397;28;20468;-54
2021/12/17 03:15:21;;;;;;;15.13;11.73;;;10.50;60.90;;;;;;5089537;28;20445;-54
2021/12/17 03:23:40;;;;;;;17.03;11.87;;;10.40;61.70;;;;;;5088824;28;20469;-54
2021/12/17 03:26:09;;;;;;;16.67;12.60;;;10.40;61.40;;;;;;5083878;28;22170;-53
2021/12/17 03:28:36;;;;;;;17.43;11.93;;;10.50;61.60;;;;;;5088235;28;20445;-55
2021/12/17 03:31:03;;;;;;;13.57;11.40;;;10.50;61.20;;;;;;5086734;28;20808;-54
2021/12/17 03:33:29;;;;;;;13.00;10.60;;;10.50;61.70;;;;;;5088332;28;20441;-54
2021/12/17 03:35:54;;;;;;;13.70;11.50;;;10.30;61.70;;;;;;5084097;28;20982;-54
2021/12/17 03:38:20;;;;;;;15.67;11.77;;;10.40;62.00;;;;;;5085386;28;20226;-55
2021/12/17 03:40:47;;;;;;;14.20;11.97;;;10.20;61.50;;;;;;5085335;28;20222;-55
2021/12/17 03:43:21;;;;;;;21.60;11.73;;;10.30;61.90;;;;;;5083866;28;20621;-54
2021/12/17 03:45:47;;;;;;;13.80;11.40;;;10.40;61.70;;;;;;5084710;28;20864;-54
2021/12/17 03:48:12;;;;;;;16.07;11.80;;;10.40;61.30;;;;;;5085408;28;20436;-55
2021/12/17 03:50:38;;;;;;;14.60;11.57;;;10.50;61.40;;;;;;5086393;28;20472;-54
2021/12/17 03:53:04;;;;;;;14.37;12.13;;;10.50;61.20;;;;;;5083341;28;20183;-54
2021/12/17 03:55:30;;;;;;;14.73;12.13;;;10.60;61.10;;;;;;5085427;28;20178;-54
2021/12/17 03:58:00;;;;;;;14.30;10.60;;;10.60;60.90;;;;;;5089621;28;20455;-54
2021/12/17 04:00:28;;;;;;;12.53;10.80;;;10.60;61.00;;;;;;5087428;28;20314;-54
2021/12/17 04:02:53;;;;;;;15.23;12.60;;;10.70;60.80;;;;;;5084069;28;20444;-54
2021/12/17 04:05:19;;;;;;;14.67;11.37;;;10.50;60.70;;;;;;5083696;28;20940;-55
2021/12/17 04:07:45;;;;;;;17.30;11.77;;;10.60;61.10;;;;;;5084080;28;20202;-54
2021/12/17 04:10:11;;;;;;;14.57;12.40;;;10.60;60.90;;;;;;5086427;28;20482;-54
2021/12/17 04:15:15;;;;;;;16.80;11.67;;;10.40;61.70;;;;;;5088346;28;20445;-54
2021/12/17 04:17:52;;;;;;;13.80;11.47;;;10.50;61.60;;;;;;5083669;28;20817;-55
2021/12/17 04:20:17;;;;;;;16.13;12.87;;;10.40;61.40;;;;;;5086119;28;20491;-54
2021/12/17 04:22:43;;;;;;;12.77;11.43;;;10.50;61.30;;;;;;5085064;28;20441;-54
2021/12/17 04:25:09;;;;;;;15.37;11.97;;;10.60;61.20;;;;;;5083911;28;20215;-54
2021/12/17 04:27:34;;;;;;;15.40;12.47;;;10.60;60.90;;;;;;5089197;28;20217;-55
2021/12/17 04:30:00;;;;;;;13.80;10.60;;;10.70;60.90;;;;;;5082174;28;20688;-57
2021/12/17 04:32:26;;;;;;;16.77;11.87;;;10.70;60.70;;;;;;5086775;28;20307;-54
2021/12/17 04:34:52;;;;;;;13.30;11.73;;;10.70;60.90;;;;;;5084248;28;20810;-55
2021/12/17 04:37:17;;;;;;;13.37;12.03;;;10.70;61.30;;;;;;5091147;28;20190;-55
2021/12/17 04:39:43;;;;;;;12.30;10.33;;;10.60;61.10;;;;;;5090419;28;20227;-53
2021/12/17 04:42:16;;;;;;;15.37;11.60;;;10.60;61.10;;;;;;5091582;28;20558;-54
2021/12/17 04:44:49;;;;;;;15.67;12.27;;;10.70;61.10;;;;;;5085410;28;20203;-54
2021/12/17 04:57:53;;;;;;;14.30;11.50;;;10.80;60.30;;;;;;5083681;28;20466;-53
2021/12/17 05:00:23;;;;;;;18.30;12.73;;;10.80;60.40;;;;;;5087888;28;20489;-54
2021/12/17 05:02:52;;;;;;;16.80;12.27;;;10.80;60.60;;;;;;5089109;28;20437;-54
2021/12/17 05:05:20;;;;;;;14.60;11.77;;;10.80;60.50;;;;;;5084803;28;20437;-54
2021/12/17 05:07:52;;;;;;;15.13;12.57;;;10.80;60.50;;;;;;5084894;28;20481;-55
2021/12/17 05:18:34;;;;;;;14.93;12.40;;;10.70;60.20;;;;;;5083795;28;20903;-54
2021/12/17 05:21:04;;;;;;;16.47;13.20;;;10.60;60.80;;;;;;5083325;28;20972;-56
2021/12/17 05:23:36;;;;;;;15.47;12.43;;;10.60;61.20;;;;;;5085151;28;20456;-55
2021/12/17 05:26:07;;;;;;;16.23;11.50;;;10.50;61.90;;;;;;5081975;28;20496;-54
2021/12/17 05:28:34;;;;;;;13.87;11.70;;;10.60;61.80;;;;;;5085401;28;20448;-54
2021/12/17 05:31:00;;;;;;;19.40;12.73;;;10.70;61.60;;;;;;5085689;28;20471;-55
2021/12/17 05:33:26;;;;;;;15.77;12.10;;;10.70;61.30;;;;;;5085198;28;20806;-54
2021/12/17 05:35:53;;;;;;;14.97;11.60;;;10.80;61.20;;;;;;5083682;28;20441;-54
2021/12/17 05:38:20;;;;;;;16.60;12.60;;;10.80;61.00;;;;;;5086783;28;20803;-54
2021/12/17 05:40:46;;;;;;;15.33;12.03;;;10.80;60.90;;;;;;5085632;28;21005;-55
2021/12/17 05:43:14;;;;;;;15.63;11.60;;;10.90;60.70;;;;;;5086091;28;20442;-54
2021/12/17 05:46:03;;;;;;;15.33;12.83;;;10.90;60.60;;;;;;5086195;28;20441;-54
2021/12/17 05:48:29;;;;;;;15.17;11.70;;;10.90;60.50;;;;;;5081465;28;20928;-54
2021/12/17 05:50:57;;;;;;;14.37;12.00;;;10.90;60.30;;;;;;5083845;28;20453;-54
2021/12/17 05:53:24;;;;;;;14.80;13.07;;;10.90;60.10;;;;;;5086075;28;20646;-55
2021/12/17 05:55:50;;;;;;;15.70;12.90;;;10.90;60.10;;;;;;5081101;28;20804;-54
2021/12/17 05:58:16;;;;;;;18.77;12.07;;;10.90;60.00;;;;;;5082499;28;20503;-55
2021/12/17 06:00:44;;;;;;;18.00;13.07;;;10.90;60.00;;;;;;5088655;28;20477;-54
2021/12/17 06:03:10;;;;;;;14.03;11.50;;;10.90;60.10;;;;;;5093414;28;20884;-53
2021/12/17 06:05:36;;;;;;;17.00;13.47;;;10.80;59.90;;;;;;5089595;28;20560;-55
2021/12/17 06:08:03;;;;;;;15.33;12.20;;;10.90;60.00;;;;;;5099787;28;20471;-55
2021/12/17 06:10:28;;;;;;;15.53;12.67;;;10.70;60.10;;;;;;5088992;28;20438;-54
2021/12/17 06:12:54;;;;;;;15.53;12.87;;;10.60;61.00;;;;;;5087875;28;21243;-55
2021/12/17 06:15:22;;;;;;;19.40;13.40;;;10.70;61.10;;;;;;5089157;28;20186;-53
2021/12/17 06:17:48;;;;;;;20.07;14.27;;;10.70;61.70;;;;;;5091975;28;20215;-53
2021/12/17 06:20:16;;;;;;;15.43;12.00;;;11.00;63.20;;;;;;5100408;28;20512;-55
2021/12/17 06:22:42;;;;;;;14.97;12.87;;;11.20;62.50;;;;;;5087046;28;20440;-54
2021/12/17 06:25:09;;;;;;;14.40;11.70;;;11.40;61.50;;;;;;5090651;28;20441;-54
2021/12/17 06:27:35;;;;;;;17.30;13.27;;;11.50;60.60;;;;;;5103171;28;20191;-54
2021/12/17 06:30:03;;;;;;;14.23;11.90;;;11.60;60.60;;;;;;5089099;28;20445;-53
2021/12/17 06:32:28;;;;;;;13.57;12.17;;;11.80;60.10;;;;;;5098917;28;20187;-52
2021/12/17 06:34:54;;;;;;;16.27;11.80;;;11.80;59.00;;;;;;5091350;28;20437;-54
2021/12/17 06:37:20;;;;;;;14.50;11.70;;;11.90;58.90;;;;;;5091637;28;20218;-51
2021/12/17 06:39:47;;;;;;;17.20;11.80;;;12.00;58.40;;;;;;5087616;28;20231;-54
2021/12/17 06:42:13;;;;;;;12.83;10.93;;;12.00;58.50;;;;;;5091026;28;20430;-53
2021/12/17 06:44:40;;;;;;;16.10;13.13;;;12.10;58.40;;;;;;5091148;28;20433;-54
2021/12/17 06:49:56;;;;;;;17.40;11.83;;;12.30;57.80;;;;;;5087994;28;20489;-54
2021/12/17 06:55:27;;;;;;;13.53;11.27;;;12.30;57.30;;;;;;5089797;28;20507;-54
2021/12/17 06:58:36;;;;;;;13.93;11.20;;;12.30;57.30;;;;;;5088889;28;20441;-55
2021/12/17 07:06:44;;;;;;;13.20;10.30;;;12.10;56.90;;;;;;5094809;28;20431;-53
2021/12/17 07:40:10;;;;;;;11.67;9.53;;;12.20;57.10;;;;;;5091567;28;20254;-54
2021/12/17 07:42:37;;;;;;;12.20;10.57;;;12.20;57.00;;;;;;5092961;28;20804;-52
2021/12/17 07:45:04;;;;;;;14.53;9.70;;;12.20;56.80;;;;;;5089026;28;20440;-53
2021/12/17 07:47:30;;;;;;;14.93;11.17;;;12.30;56.60;;;;;;5089737;28;20920;-54
2021/12/17 07:49:56;;;;;;;13.27;10.37;;;12.40;56.40;;;;;;5089548;28;20449;-54
2021/12/17 07:52:22;;;;;;;11.97;10.53;;;12.50;56.00;;;;;;5092190;28;20606;-56
2021/12/17 07:54:48;;;;;;;16.43;12.20;;;12.50;55.70;;;;;;5085041;28;20199;-55
2021/12/17 07:57:13;;;;;;;14.90;11.30;;;12.40;55.20;;;;;;5086655;28;20432;-49
2021/12/17 07:59:40;;;;;;;18.73;13.60;;;12.40;55.30;;;;;;5080709;28;20211;-56
2021/12/17 08:02:06;;;;;;;14.27;11.90;;;12.40;55.40;;;;;;5082290;28;20191;-53
2021/12/17 08:04:32;;;;;;;16.77;12.53;;;12.40;55.80;;;;;;5085244;28;20929;-53
2021/12/17 08:06:59;;;;;;;15.90;12.70;;;12.40;55.60;;;;;;5091209;28;20453;-56
2021/12/17 08:09:25;;;;;;;17.07;11.57;;;12.40;55.60;;;;;;5091225;28;20433;-55
2021/12/17 08:11:57;;;;;;;15.50;12.03;;;12.40;55.70;;;;;;5086579;28;20500;-53
2021/12/17 08:14:26;;;;;;;11.77;10.40;;;12.40;55.60;;;;;;5091526;28;20562;-55
2021/12/17 08:17:03;;;;;;;15.37;11.97;;;12.40;55.90;;;;;;5087544;28;20433;-55
2021/12/17 08:27:27;;;;;;;19.23;13.57;;;12.50;56.30;;;;;;5091956;28;20455;-54
2021/12/17 08:32:22;;;;;;;12.60;11.17;;;12.70;56.30;;;;;;5092265;28;20435;-53
2021/12/17 08:34:48;;;;;;;13.23;11.60;;;12.80;56.10;;;;;;5084288;28;20468;-54
2021/12/17 08:37:14;;;;;;;12.43;11.13;;;12.90;55.70;;;;;;5091681;28;20191;-54
2021/12/17 08:39:40;;;;;;;13.03;10.53;;;13.00;56.00;;;;;;5083857;28;20609;-54
2021/12/17 08:42:07;;;;;;;15.03;12.03;;;13.00;55.70;;;;;;5089253;28;20800;-55
2021/12/17 08:44:32;;;;;;;13.60;9.37;;;13.00;55.50;;;;;;5089497;28;20182;-54
2021/12/17 08:46:58;;;;;;;14.37;10.40;;;13.10;55.40;;;;;;5089049;28;20441;-53
2021/12/17 08:49:24;;;;;;;11.70;9.03;;;13.10;55.30;;;;;;5090831;28;20188;-54
2021/12/17 08:51:50;;;;;;;11.60;9.17;;;13.20;55.10;;;;;;5089711;28;20305;-55
2021/12/17 08:54:15;;;;;;;10.97;8.70;;;12.90;54.80;;;;;;5090452;28;20441;-54
2021/12/17 08:56:47;;;;;;;9.73;8.77;;;12.80;55.00;;;;;;5089146;28;20638;-55
2021/12/17 08:59:14;;;;;;;9.60;8.27;;;12.80;55.00;;;;;;5085972;28;20245;-52
2021/12/17 09:01:40;;;;;;;9.33;8.20;;;12.80;55.30;;;;;;5088689;28;20832;-55
2021/12/17 09:04:06;;;;;;;10.67;9.17;;;12.90;55.30;;;;;;5086217;28;20459;-55
2021/12/17 09:06:32;;;;;;;9.97;8.87;;;13.00;55.20;;;;;;5086868;28;20426;-53
2021/12/17 09:08:57;;;;;;;8.80;7.90;;;13.10;55.10;;;;;;5089588;28;20714;-54
2021/12/17 09:11:25;;;;;;;8.13;7.33;;;13.20;55.00;;;;;;5088827;28;20195;-53
2021/12/17 09:13:52;;;;;;;9.17;7.97;;;13.10;54.90;;;;;;5087606;28;20198;-53
2021/12/17 09:16:20;;;;;;;8.50;7.43;;;13.20;54.90;;;;;;5089030;28;20456;-54
2021/12/17 09:18:47;;;;;;;9.53;7.97;;;13.30;54.70;;;;;;5085637;28;20565;-55
2021/12/17 09:21:13;;;;;;;10.37;8.40;;;13.40;54.40;;;;;;5089477;28;20564;-54
2021/12/17 09:23:39;;;;;;;9.10;8.20;;;13.50;54.10;;;;;;5090156;28;20853;-54
2021/12/17 09:26:04;;;;;;;9.17;8.23;;;13.60;53.80;;;;;;5088079;28;20208;-55
2021/12/17 09:28:31;;;;;;;10.60;8.57;;;13.70;53.70;;;;;;5089725;28;20179;-55
2021/12/17 09:30:58;;;;;;;10.40;8.13;;;13.70;53.10;;;;;;5089153;28;20203;-55
2021/12/17 09:33:25;;;;;;;8.37;7.10;;;13.80;53.40;;;;;;5088092;28;20486;-54
2021/12/17 09:35:51;;;;;;;10.00;8.03;;;14.00;53.50;;;;;;5078572;28;20514;-55
2021/12/17 09:38:18;;;;;;;8.97;7.70;;;14.20;53.40;;;;;;5084899;28;20448;-54
2021/12/17 09:40:44;;;;;;;10.30;8.77;;;14.40;53.20;;;;;;5086919;28;20480;-55
2021/12/17 09:43:10;;;;;;;7.73;6.93;;;14.70;52.10;;;;;;5088977;28;20820;-55
2021/12/17 09:45:36;;;;;;;8.80;7.63;;;15.10;51.40;;;;;;5084090;28;20595;-56
2021/12/17 09:48:02;;;;;;;8.83;7.93;;;15.40;50.30;;;;;;5089130;28;20426;-55
2021/12/17 09:50:28;;;;;;;8.37;7.37;;;15.80;49.40;;;;;;5083407;28;20442;-55
2021/12/17 09:52:54;;;;;;;8.10;7.30;;;16.20;48.40;;;;;;5091086;28;20429;-55
2021/12/17 09:55:20;;;;;;;7.70;7.00;;;16.50;47.40;;;;;;5092215;28;20219;-55
2021/12/17 09:57:45;;;;;;;6.93;6.33;;;16.80;46.80;;;;;;5093068;28;20229;-56
2021/12/17 10:00:14;;;;;;;8.63;6.60;;;16.90;46.30;;;;;;5093895;28;20484;-56
2021/12/17 10:02:43;;;;;;;6.20;5.60;;;17.10;45.90;;;;;;5092931;28;20183;-55
2021/12/17 10:05:13;;;;;;;5.70;5.20;;;17.20;45.50;;;;;;5093818;28;20424;-55
2021/12/17 10:07:41;;;;;;;5.40;4.90;;;17.20;44.20;;;;;;5094191;28;20429;-55
2021/12/17 10:10:07;;;;;;;5.50;5.00;;;17.30;44.20;;;;;;5093837;28;20421;-54
2021/12/17 10:12:36;;;;;;;4.97;4.40;;;17.30;43.50;;;;;;5094093;28;20429;-55
2021/12/17 10:15:12;;;;;;;4.80;4.40;;;17.40;43.50;;;;;;5093406;28;20420;-53
2021/12/17 10:17:53;;;;;;;5.30;4.80;;;17.40;43.30;;;;;;5090111;28;20483;-54
2021/12/17 10:20:19;;;;;;;5.87;4.97;;;17.40;42.80;;;;;;5092395;28;20503;-55
2021/12/17 10:22:56;;;;;;;5.40;4.90;;;17.30;43.10;;;;;;5093745;28;20413;-55
2021/12/17 10:25:23;;;;;;;6.70;6.20;;;17.40;43.60;;;;;;5091403;28;20429;-56
2021/12/17 10:27:54;;;;;;;7.30;6.70;;;17.50;43.50;;;;;;5092940;28;20831;-56
2021/12/17 10:30:21;;;;;;;6.93;6.23;;;17.60;43.50;;;;;;5092718;28;20416;-55
2021/12/17 10:32:50;;;;;;;7.47;6.87;;;17.70;43.50;;;;;;5091646;28;20460;-55
2021/12/17 10:35:19;;;;;;;9.73;8.10;;;17.80;43.40;;;;;;5088187;28;20958;-56
2021/12/17 10:37:51;;;;;;;7.43;6.63;;;17.90;43.40;;;;;;5091223;28;20440;-56
2021/12/17 10:40:28;;;;;;;8.20;7.40;;;17.90;43.60;;;;;;5090769;28;20508;-56
2021/12/17 10:43:05;;;;;;;7.13;6.43;;;17.80;43.70;;;;;;5093566;28;20833;-56
2021/12/17 10:45:43;;;;;;;9.73;8.20;;;17.90;44.30;;;;;;5092591;28;20512;-56
2021/12/17 10:51:10;;;;;;;7.73;7.03;;;17.60;44.60;;;;;;5089745;28;20479;-56
2021/12/17 10:53:35;;;;;;;8.57;7.67;;;17.70;44.30;;;;;;5091969;28;20438;-56
2021/12/17 10:56:01;;;;;;;8.20;7.40;;;17.70;44.50;;;;;;5087438;28;20444;-56
2021/12/17 10:58:27;;;;;;;7.87;7.07;;;17.60;44.60;;;;;;5092095;28;20222;-55
2021/12/17 11:00:58;;;;;;;10.30;8.70;;;17.40;44.80;;;;;;5090294;28;20230;-55
2021/12/17 11:03:24;;;;;;;8.47;7.57;;;17.60;44.90;;;;;;5089316;28;20198;-56
2021/12/17 11:05:50;;;;;;;7.23;6.47;;;17.80;44.40;;;;;;5090959;28;20766;-57
2021/12/17 11:08:30;;;;;;;9.23;7.43;;;18.00;43.80;;;;;;5092204;28;20440;-54
2021/12/17 11:11:05;;;;;;;7.70;6.90;;;18.20;43.10;;;;;;5091784;28;20845;-56
2021/12/17 11:13:31;;;;;;;9.30;8.07;;;18.30;42.90;;;;;;5090103;28;20571;-55
2021/12/17 11:15:57;;;;;;;7.80;6.53;;;18.30;43.10;;;;;;5091658;28;21075;-56
2021/12/17 11:18:25;;;;;;;7.60;6.80;;;18.30;43.10;;;;;;5091730;28;20697;-58
2021/12/17 11:20:53;;;;;;;8.60;7.03;;;18.30;43.20;;;;;;5091044;28;20742;-56
2021/12/17 11:23:19;;;;;;;8.93;6.60;;;18.10;43.10;;;;;;5089183;28;20436;-56
2021/12/17 11:25:48;;;;;;;6.50;5.90;;;17.90;43.90;;;;;;5091014;28;20432;-56
2021/12/17 11:28:14;;;;;;;6.07;5.47;;;17.70;44.10;;;;;;5091776;28;20445;-55
2021/12/17 11:30:46;;;;;;;7.23;6.00;;;17.40;44.50;;;;;;5089909;28;20429;-56
2021/12/17 11:33:13;;;;;;;6.00;5.50;;;17.30;44.60;;;;;;5083893;28;20445;-57
2021/12/17 11:35:42;;;;;;;6.40;5.80;;;17.30;44.70;;;;;;5088266;28;20433;-58
2021/12/17 11:38:44;;;;;;;6.50;5.90;;;17.30;44.90;;;;;;5086006;28;20495;-58
2021/12/17 11:41:18;;;;;;;6.27;5.60;;;17.20;44.80;;;;;;5090375;28;20472;-59
2021/12/17 11:43:51;;;;;;;5.90;5.30;;;17.10;45.00;;;;;;5092366;28;20421;-58
2021/12/17 11:46:32;;;;;;;6.50;5.80;;;17.00;45.20;;;;;;5091858;28;20912;-58
2021/12/17 11:49:04;;;;;;;5.63;5.13;;;16.80;46.10;;;;;;5092665;28;20444;-58
2021/12/17 11:51:33;;;;;;;6.43;5.17;;;16.70;45.70;;;;;;5090024;28;20481;-58
2021/12/17 11:54:04;;;;;;;5.87;5.13;;;16.70;45.70;;;;;;5092650;28;20523;-58
2021/12/17 11:56:52;;;;;;;6.10;5.10;;;16.50;46.40;;;;;;5091656;28;20429;-58
2021/12/17 11:59:28;;;;;;;5.90;5.30;;;16.60;46.50;;;;;;5080575;28;20437;-58
2021/12/17 12:02:02;;;;;;;6.20;5.47;;;16.70;46.40;;;;;;5092766;28;20538;-58
2021/12/17 12:04:33;;;;;;;5.70;5.20;;;16.50;45.60;;;;;;5091556;28;20437;-58
2021/12/17 12:07:24;;;;;;;6.30;5.70;;;16.50;46.40;;;;;;5092231;28;20433;-58
2021/12/17 12:10:04;;;;;;;6.70;6.10;;;16.40;46.70;;;;;;5087611;28;20451;-58
2021/12/17 12:12:50;;;;;;;8.93;6.90;;;16.60;46.80;;;;;;5090689;28;21018;-58
2021/12/17 12:15:27;;;;;;;7.03;6.43;;;16.60;46.40;;;;;;5089604;28;20437;-58
2021/12/17 12:18:06;;;;;;;6.40;5.80;;;16.60;46.60;;;;;;5088758;28;20516;-58
2021/12/17 12:20:50;;;;;;;5.63;5.13;;;16.70;46.50;;;;;;5088740;28;20492;-58
2021/12/17 12:23:31;;;;;;;6.03;5.43;;;16.80;46.30;;;;;;5089994;28;20978;-58
2021/12/17 12:26:07;;;;;;;5.70;5.20;;;16.80;46.50;;;;;;5088806;28;20997;-58
2021/12/17 12:28:44;;;;;;;5.60;5.10;;;16.70;46.20;;;;;;5087301;28;20449;-58
2021/12/17 12:31:17;;;;;;;6.20;5.60;;;16.70;46.70;;;;;;5089292;28;20429;-58
2021/12/17 12:34:01;;;;;;;5.83;5.33;;;16.70;46.50;;;;;;5088493;28;20484;-59
2021/12/17 12:36:53;;;;;;;6.37;5.77;;;16.90;46.00;;;;;;5081972;28;20526;-56
2021/12/17 12:39:29;;;;;;;5.60;5.10;;;16.90;45.80;;;;;;5087442;28;20483;-55
2021/12/17 12:41:55;;;;;;;8.87;4.50;;;17.00;45.90;;;;;;5089712;28;20473;-54
2021/12/17 12:44:41;;;;;;;6.50;5.90;;;17.10;46.00;;;;;;5089791;28;20429;-54
2021/12/17 12:47:09;;;;;;;6.37;5.80;;;17.10;45.90;;;;;;5089936;28;20198;-56
2021/12/17 12:49:50;;;;;;;6.83;6.23;;;17.10;45.60;;;;;;5088574;28;20483;-54
2021/12/17 12:52:31;;;;;;;7.00;6.40;;;17.10;45.80;;;;;;5087037;28;20846;-54
2021/12/17 12:55:23;;;;;;;13.07;10.73;;;17.10;46.20;;;;;;5086309;28;20525;-54
2021/12/17 12:57:58;;;;;;;16.87;12.17;;;17.00;46.30;;;;;;5085910;28;20985;-53
2021/12/17 13:00:43;;;;;;;14.63;12.60;;;16.90;46.40;;;;;;5088078;28;20508;-55
2021/12/17 13:03:13;;;;;;;8.17;6.70;;;17.20;46.50;;;;;;5082985;28;20468;-53
2021/12/17 13:05:40;;;;;;;6.13;5.53;;;17.20;46.00;;;;;;5087750;28;20494;-56
2021/12/17 13:08:07;;;;;;;5.80;5.30;;;17.20;45.70;;;;;;5089408;28;20453;-53
2021/12/17 13:10:38;;;;;;;4.93;4.53;;;17.30;45.80;;;;;;5086501;28;20432;-54
2021/12/17 13:13:20;;;;;;;6.27;5.07;;;17.00;45.60;;;;;;5089056;28;20441;-54
2021/12/17 13:16:04;;;;;;;5.60;5.10;;;17.20;45.80;;;;;;5085962;28;20445;-55
2021/12/17 13:24:15;;;;;;;6.80;6.03;;;16.80;46.10;;;;;;5087046;28;20433;-54
2021/12/17 13:26:44;;;;;;;7.23;6.63;;;16.70;46.30;;;;;;5085855;28;20508;-54
2021/12/17 13:29:26;;;;;;;7.20;5.43;;;16.70;46.50;;;;;;5088039;28;20441;-56
2021/12/17 13:31:54;;;;;;;6.20;5.60;;;16.70;46.70;;;;;;5085674;28;20445;-56
2021/12/17 13:34:47;;;;;;;6.80;5.60;;;16.80;46.70;;;;;;5087541;28;20441;-55
2021/12/17 13:37:22;;;;;;;5.80;5.20;;;16.90;46.80;;;;;;5087134;28;20445;-56
2021/12/17 13:39:56;;;;;;;6.20;5.60;;;17.00;46.80;;;;;;5081044;28;20491;-56
2021/12/17 13:42:35;;;;;;;8.10;6.50;;;16.90;46.70;;;;;;5088268;28;20444;-56
2021/12/17 13:45:06;;;;;;;6.73;6.13;;;16.80;46.70;;;;;;5087303;28;20437;-57
2021/12/17 13:47:40;;;;;;;6.80;6.10;;;16.70;46.90;;;;;;5087434;28;20553;-54
2021/12/17 13:50:28;;;;;;;5.83;5.30;;;16.40;47.50;;;;;;5089221;28;20527;-54
2021/12/17 13:53:00;;;;;;;9.43;6.80;;;16.30;48.30;;;;;;5084076;28;20445;-54
2021/12/17 13:55:37;;;;;;;7.87;7.07;;;16.40;48.40;;;;;;5080764;28;20442;-54
2021/12/17 13:58:07;;;;;;;7.40;6.80;;;16.60;48.10;;;;;;5087285;28;20869;-54
2021/12/17 14:00:42;;;;;;;7.90;7.20;;;16.70;47.50;;;;;;5087825;28;20495;-54
2021/12/17 14:03:14;;;;;;;9.10;8.30;;;16.70;46.90;;;;;;5084872;28;20977;-55
2021/12/17 14:05:41;;;;;;;7.17;6.47;;;16.60;46.80;;;;;;5081995;28;20511;-54
2021/12/17 14:08:18;;;;;;;7.80;6.60;;;16.40;47.10;;;;;;5084796;28;20433;-53
2021/12/17 14:10:45;;;;;;;6.70;6.00;;;16.30;47.50;;;;;;5083888;28;20441;-55
2021/12/17 14:13:20;;;;;;;6.53;5.90;;;16.20;47.50;;;;;;5089053;28;20440;-54
2021/12/17 14:15:47;;;;;;;6.83;6.23;;;16.00;47.60;;;;;;5087899;28;20441;-55
2021/12/17 14:18:18;;;;;;;7.27;6.57;;;16.00;47.70;;;;;;5092633;28;20429;-55
2021/12/17 14:20:53;;;;;;;8.10;6.80;;;16.00;47.90;;;;;;5089205;28;20968;-56
2021/12/17 14:23:24;;;;;;;8.20;7.40;;;15.90;48.10;;;;;;5083478;28;20436;-54
2021/12/17 14:25:53;;;;;;;7.57;6.70;;;15.90;48.20;;;;;;5082726;28;20477;-54
2021/12/17 14:28:23;;;;;;;7.80;6.50;;;16.10;47.90;;;;;;5089142;28;20457;-53
2021/12/17 14:31:01;;;;;;;7.87;6.50;;;16.10;47.90;;;;;;5089816;28;20440;-54
2021/12/17 14:33:37;;;;;;;8.77;7.87;;;16.10;47.70;;;;;;5090874;28;20436;-54
2021/12/17 14:36:08;;;;;;;11.97;9.90;;;15.90;47.70;;;;;;5083024;28;21167;-54
2021/12/17 14:38:49;;;;;;;10.60;9.57;;;15.80;48.30;;;;;;5089388;28;20490;-54
2021/12/17 14:41:24;;;;;;;10.13;8.30;;;15.90;48.30;;;;;;5088922;28;20611;-54
2021/12/17 14:43:57;;;;;;;9.17;8.27;;;15.70;48.20;;;;;;5092166;28;20472;-50
2021/12/17 14:46:25;;;;;;;8.13;6.97;;;15.60;48.40;;;;;;5085672;28;20564;-54
2021/12/17 15:05:53;;;;;;;9.00;8.10;;;14.40;50.90;;;;;;5089972;28;20448;-53
2021/12/17 15:08:19;;;;;;;10.63;9.63;;;14.40;50.70;;;;;;5087720;28;21270;-54
2021/12/17 15:10:47;;;;;;;10.40;9.50;;;14.30;50.80;;;;;;5090734;28;20449;-54
2021/12/17 15:13:13;;;;;;;9.37;8.17;;;14.20;50.90;;;;;;5089312;28;20433;-51
2021/12/17 15:15:40;;;;;;;10.10;9.10;;;14.20;51.00;;;;;;5086769;28;20527;-52
2021/12/17 15:18:15;;;;;;;10.20;8.07;;;14.20;51.00;;;;;;5090792;28;20536;-53
2021/12/17 15:20:49;;;;;;;9.03;8.20;;;14.10;51.10;;;;;;5091527;28;20563;-53
2021/12/17 15:23:16;;;;;;;9.77;8.67;;;13.80;51.20;;;;;;5087198;28;20797;-55
2021/12/17 15:25:42;;;;;;;9.73;8.83;;;13.80;51.40;;;;;;5087781;28;20448;-53
2021/12/17 15:28:10;;;;;;;10.23;9.13;;;13.50;51.80;;;;;;5090269;28;20475;-49
2021/12/17 15:30:40;;;;;;;9.67;8.77;;;13.40;52.00;;;;;;5086975;28;21074;-53
2021/12/17 15:33:06;;;;;;;7.93;7.23;;;13.50;52.00;;;;;;5092651;28;20417;-51
2021/12/17 15:35:33;;;;;;;9.50;8.60;;;13.50;51.90;;;;;;5088628;28;20515;-50
2021/12/17 15:38:00;;;;;;;9.17;8.10;;;13.60;51.60;;;;;;5090916;28;20974;-54
2021/12/17 15:40:27;;;;;;;8.80;8.00;;;13.70;51.60;;;;;;5091149;28;20571;-54
2021/12/17 15:42:54;;;;;;;11.60;9.27;;;13.70;51.30;;;;;;5092454;28;20434;-52
2021/12/17 15:45:20;;;;;;;10.83;8.60;;;13.80;51.20;;;;;;5081677;28;20452;-51
2021/12/17 15:47:46;;;;;;;8.37;7.60;;;13.80;51.00;;;;;;5092061;28;20955;-53
2021/12/17 15:50:14;;;;;;;8.40;7.37;;;13.80;51.10;;;;;;5088249;28;20437;-54
2021/12/17 15:52:50;;;;;;;10.47;8.50;;;13.60;51.50;;;;;;5091604;28;20843;-54
2021/12/17 15:55:21;;;;;;;8.77;8.00;;;13.70;51.60;;;;;;5090387;28;20425;-51
2021/12/17 15:57:49;;;;;;;10.70;9.50;;;13.70;51.40;;;;;;5088450;28;20854;-56